sensor_id;sensor_type;location;lat;lon;timestamp;temperature;humidity
43414;DHT22;29013;49.676;8.606;2022-11-30T00:01:58;8.4;99.9
43414;DHT22;29013;49.676;8.606;2022-11-30T00:13:34;8.6;99.9
43414;DHT22;29013;49.676;8.606;2022-11-30T00:19:03;8.6;99.9
43414;DHT22;29013;49.676;8.606;2022-11-30T00:24:39;8.5;99.9
43414;DHT22;29013;49.676;8.606;2022-11-30T00:30:16;8.5;99.9
43414;DHT22;29013;49.676;8.606;2022-11-30T00:41:24;8.6;99.9
43414;DHT22;29013;49.676;8.606;2022-11-30T00:46:49;8.5;99.9
43414;DHT22;29013;49.676;8.606;2022-11-30T00:52:12;8.4;99.9
43414;DHT22;29013;49.676;8.606;2022-11-30T00:58:17;8.4;99.9
43414;DHT22;29013;49.676;8.606;2022-11-30T01:04:28;8.5;99.9
43414;DHT22;29013;49.676;8.606;2022-11-30T01:16:35;8.7;99.9
43414;DHT22;29013;49.676;8.606;2022-11-30T01:34:38;8.7;99.9
43414;DHT22;29013;49.676;8.606;2022-11-30T01:40:00;8.7;99.9
43414;DHT22;29013;49.676;8.606;2022-11-30T01:45:31;8.5;99.9
43414;DHT22;29013;49.676;8.606;2022-11-30T01:51:22;8.4;99.9
43414;DHT22;29013;49.676;8.606;2022-11-30T02:02:58;8.6;99.9
43414;DHT22;29013;49.676;8.606;2022-11-30T02:08:28;8.5;99.9
43414;DHT22;29013;49.676;8.606;2022-11-30T02:14:26;8.4;99.9
43414;DHT22;29013;49.676;8.606;2022-11-30T02:20:36;8.5;99.9
43414;DHT22;29013;49.676;8.606;2022-11-30T02:26:27;8.5;99.9
43414;DHT22;29013;49.676;8.606;2022-11-30T02:38:15;8.5;99.9
43414;DHT22;29013;49.676;8.606;2022-11-30T02:43:46;8.4;99.9
43414;DHT22;29013;49.676;8.606;2022-11-30T02:49:25;8.3;99.9
43414;DHT22;29013;49.676;8.606;2022-11-30T02:55:05;8.4;99.9
43414;DHT22;29013;49.676;8.606;2022-11-30T03:00:43;8.3;99.9
43414;DHT22;29013;49.676;8.606;2022-11-30T03:06:40;8.3;99.9
43414;DHT22;29013;49.676;8.606;2022-11-30T03:12:12;8.3;99.9
43414;DHT22;29013;49.676;8.606;2022-11-30T03:18:01;8.2;99.9
43414;DHT22;29013;49.676;8.606;2022-11-30T03:23:34;8.3;99.9
43414;DHT22;29013;49.676;8.606;2022-11-30T03:29:01;8.3;99.9
43414;DHT22;29013;49.676;8.606;2022-11-30T03:34:26;8.2;99.9
43414;DHT22;29013;49.676;8.606;2022-11-30T03:39:52;8.2;99.9
43414;DHT22;29013;49.676;8.606;2022-11-30T03:45:25;8.2;99.9
43414;DHT22;29013;49.676;8.606;2022-11-30T03:51:00;8.3;99.9
43414;DHT22;29013;49.676;8.606;2022-11-30T03:56:29;8.2;99.9
43414;DHT22;29013;49.676;8.606;2022-11-30T04:02:01;8.2;99.9
43414;DHT22;29013;49.676;8.606;2022-11-30T04:08:28;8.1;99.9
43414;DHT22;29013;49.676;8.606;2022-11-30T04:13:55;8.5;99.9
43414;DHT22;29013;49.676;8.606;2022-11-30T04:19:33;8.3;99.9
43414;DHT22;29013;49.676;8.606;2022-11-30T04:25:02;8.3;99.9
43414;DHT22;29013;49.676;8.606;2022-11-30T04:30:37;8.2;99.9
43414;DHT22;29013;49.676;8.606;2022-11-30T04:36:13;8.3;99.9
43414;DHT22;29013;49.676;8.606;2022-11-30T04:41:47;8.3;99.9
43414;DHT22;29013;49.676;8.606;2022-11-30T04:47:16;8.3;99.9
43414;DHT22;29013;49.676;8.606;2022-11-30T04:52:44;8.2;99.9
43414;DHT22;29013;49.676;8.606;2022-11-30T04:58:17;8.2;99.9
43414;DHT22;29013;49.676;8.606;2022-11-30T05:03:51;8.2;99.9
43414;DHT22;29013;49.676;8.606;2022-11-30T05:09:20;8.1;99.9
43414;DHT22;29013;49.676;8.606;2022-11-30T05:14:46;8.1;99.9
43414;DHT22;29013;49.676;8.606;2022-11-30T05:20:13;8.1;99.9
43414;DHT22;29013;49.676;8.606;2022-11-30T05:25:41;8.1;99.9
43414;DHT22;29013;49.676;8.606;2022-11-30T05:31:07;8.1;99.9
43414;DHT22;29013;49.676;8.606;2022-11-30T05:36:39;8.2;99.9
43414;DHT22;29013;49.676;8.606;2022-11-30T05:42:04;8.1;99.9
43414;DHT22;29013;49.676;8.606;2022-11-30T05:47:35;8.1;99.9
43414;DHT22;29013;49.676;8.606;2022-11-30T05:52:59;8.2;99.9
43414;DHT22;29013;49.676;8.606;2022-11-30T05:58:26;8.1;99.9
43414;DHT22;29013;49.676;8.606;2022-11-30T06:03:51;8.1;99.9
43414;DHT22;29013;49.676;8.606;2022-11-30T06:09:16;8.0;99.9
43414;DHT22;29013;49.676;8.606;2022-11-30T06:14:38;8.0;99.9
43414;DHT22;29013;49.676;8.606;2022-11-30T06:20:07;8.0;99.9
43414;DHT22;29013;49.676;8.606;2022-11-30T06:25:29;8.1;99.9
43414;DHT22;29013;49.676;8.606;2022-11-30T06:30:50;8.0;99.9
43414;DHT22;29013;49.676;8.606;2022-11-30T06:36:20;8.0;99.9
43414;DHT22;29013;49.676;8.606;2022-11-30T06:41:45;8.0;99.9
43414;DHT22;29013;49.676;8.606;2022-11-30T06:47:09;8.0;99.9
43414;DHT22;29013;49.676;8.606;2022-11-30T06:52:33;8.0;99.9
43414;DHT22;29013;49.676;8.606;2022-11-30T06:57:57;7.9;99.9
43414;DHT22;29013;49.676;8.606;2022-11-30T07:03:26;7.9;99.9
43414;DHT22;29013;49.676;8.606;2022-11-30T07:08:48;7.9;99.9
43414;DHT22;29013;49.676;8.606;2022-11-30T07:14:13;7.9;99.9
43414;DHT22;29013;49.676;8.606;2022-11-30T07:19:37;7.8;99.9
43414;DHT22;29013;49.676;8.606;2022-11-30T07:25:04;7.8;99.9
43414;DHT22;29013;49.676;8.606;2022-11-30T07:30:27;7.8;99.9
43414;DHT22;29013;49.676;8.606;2022-11-30T07:35:53;7.8;99.9
43414;DHT22;29013;49.676;8.606;2022-11-30T07:41:19;7.9;99.9
43414;DHT22;29013;49.676;8.606;2022-11-30T07:46:45;7.9;99.9
43414;DHT22;29013;49.676;8.606;2022-11-30T07:52:11;7.9;99.9
43414;DHT22;29013;49.676;8.606;2022-11-30T07:57:37;7.9;99.9
43414;DHT22;29013;49.676;8.606;2022-11-30T08:03:00;7.9;99.9
43414;DHT22;29013;49.676;8.606;2022-11-30T08:08:28;7.9;99.9
43414;DHT22;29013;49.676;8.606;2022-11-30T08:13:52;8.0;99.9
43414;DHT22;29013;49.676;8.606;2022-11-30T08:19:19;8.0;99.9
43414;DHT22;29013;49.676;8.606;2022-11-30T08:24:45;8.0;99.9
43414;DHT22;29013;49.676;8.606;2022-11-30T08:30:13;8.1;99.9
43414;DHT22;29013;49.676;8.606;2022-11-30T08:35:39;8.1;99.9
43414;DHT22;29013;49.676;8.606;2022-11-30T08:41:07;8.1;99.9
43414;DHT22;29013;49.676;8.606;2022-11-30T08:46:33;8.1;99.9
43414;DHT22;29013;49.676;8.606;2022-11-30T08:51:55;8.1;99.9
43414;DHT22;29013;49.676;8.606;2022-11-30T08:57:16;8.1;99.9
43414;DHT22;29013;49.676;8.606;2022-11-30T09:02:37;8.1;99.9
43414;DHT22;29013;49.676;8.606;2022-11-30T09:08:00;8.3;99.9
43414;DHT22;29013;49.676;8.606;2022-11-30T09:13:25;8.3;99.9
43414;DHT22;29013;49.676;8.606;2022-11-30T09:18:47;8.3;99.9
43414;DHT22;29013;49.676;8.606;2022-11-30T09:24:12;8.3;99.9
43414;DHT22;29013;49.676;8.606;2022-11-30T09:29:38;8.3;99.9
43414;DHT22;29013;49.676;8.606;2022-11-30T09:35:04;8.3;99.9
43414;DHT22;29013;49.676;8.606;2022-11-30T09:40:26;8.4;99.9
43414;DHT22;29013;49.676;8.606;2022-11-30T09:45:49;8.5;99.9
43414;DHT22;29013;49.676;8.606;2022-11-30T09:51:16;8.5;99.9
43414;DHT22;29013;49.676;8.606;2022-11-30T09:56:39;8.6;99.9
43414;DHT22;29013;49.676;8.606;2022-11-30T10:02:11;8.7;99.9
43414;DHT22;29013;49.676;8.606;2022-11-30T10:07:38;8.7;99.9
43414;DHT22;29013;49.676;8.606;2022-11-30T10:13:04;8.8;99.9
43414;DHT22;29013;49.676;8.606;2022-11-30T10:18:30;8.9;99.9
43414;DHT22;29013;49.676;8.606;2022-11-30T10:24:10;8.9;99.9
43414;DHT22;29013;49.676;8.606;2022-11-30T10:29:34;9.0;99.9
43414;DHT22;29013;49.676;8.606;2022-11-30T10:35:02;9.0;99.9
43414;DHT22;29013;49.676;8.606;2022-11-30T10:40:22;9.1;99.9
43414;DHT22;29013;49.676;8.606;2022-11-30T10:45:48;9.1;99.9
43414;DHT22;29013;49.676;8.606;2022-11-30T10:51:09;9.2;99.9
43414;DHT22;29013;49.676;8.606;2022-11-30T10:56:33;9.1;99.9
43414;DHT22;29013;49.676;8.606;2022-11-30T11:01:59;9.2;99.9
43414;DHT22;29013;49.676;8.606;2022-11-30T11:07:25;9.2;99.9
43414;DHT22;29013;49.676;8.606;2022-11-30T11:12:54;9.3;99.9
43414;DHT22;29013;49.676;8.606;2022-11-30T11:18:24;9.3;99.9
43414;DHT22;29013;49.676;8.606;2022-11-30T11:23:48;9.3;99.9
43414;DHT22;29013;49.676;8.606;2022-11-30T11:29:14;9.4;99.9
43414;DHT22;29013;49.676;8.606;2022-11-30T11:34:41;9.4;99.9
43414;DHT22;29013;49.676;8.606;2022-11-30T11:40:14;9.5;99.9
43414;DHT22;29013;49.676;8.606;2022-11-30T11:45:37;9.6;99.9
43414;DHT22;29013;49.676;8.606;2022-11-30T11:51:00;9.6;99.9
43414;DHT22;29013;49.676;8.606;2022-11-30T11:56:25;9.7;99.9
43414;DHT22;29013;49.676;8.606;2022-11-30T12:01:56;9.8;99.9
43414;DHT22;29013;49.676;8.606;2022-11-30T12:07:21;9.9;99.9
43414;DHT22;29013;49.676;8.606;2022-11-30T12:12:43;10.0;99.9
43414;DHT22;29013;49.676;8.606;2022-11-30T12:18:14;9.9;99.9
43414;DHT22;29013;49.676;8.606;2022-11-30T12:24:00;9.9;99.9
43414;DHT22;29013;49.676;8.606;2022-11-30T12:29:31;10.0;99.9
43414;DHT22;29013;49.676;8.606;2022-11-30T12:35:08;9.9;99.9
43414;DHT22;29013;49.676;8.606;2022-11-30T12:40:28;9.8;99.9
43414;DHT22;29013;49.676;8.606;2022-11-30T12:45:52;10.0;99.9
43414;DHT22;29013;49.676;8.606;2022-11-30T12:51:22;10.0;99.9
43414;DHT22;29013;49.676;8.606;2022-11-30T12:56:48;10.0;99.9
43414;DHT22;29013;49.676;8.606;2022-11-30T13:02:22;10.0;99.9
43414;DHT22;29013;49.676;8.606;2022-11-30T13:07:46;10.1;99.9
43414;DHT22;29013;49.676;8.606;2022-11-30T13:13:12;10.1;99.9
43414;DHT22;29013;49.676;8.606;2022-11-30T13:18:33;10.0;99.9
43414;DHT22;29013;49.676;8.606;2022-11-30T13:24:00;9.9;99.9
43414;DHT22;29013;49.676;8.606;2022-11-30T13:29:48;10.0;99.9
43414;DHT22;29013;49.676;8.606;2022-11-30T13:40:58;10.1;99.9
43414;DHT22;29013;49.676;8.606;2022-11-30T13:46:20;10.0;99.9
43414;DHT22;29013;49.676;8.606;2022-11-30T13:51:46;9.9;99.9
43414;DHT22;29013;49.676;8.606;2022-11-30T13:58:01;9.9;99.9
43414;DHT22;29013;49.676;8.606;2022-11-30T14:08:36;10.1;99.9
43414;DHT22;29013;49.676;8.606;2022-11-30T14:13:56;10.0;99.9
43414;DHT22;29013;49.676;8.606;2022-11-30T14:19:20;9.8;99.9
43414;DHT22;29013;49.676;8.606;2022-11-30T14:24:47;9.8;99.9
43414;DHT22;29013;49.676;8.606;2022-11-30T14:30:18;9.8;99.9
43414;DHT22;29013;49.676;8.606;2022-11-30T14:35:40;9.8;99.9
43414;DHT22;29013;49.676;8.606;2022-11-30T14:41:16;9.8;99.9
43414;DHT22;29013;49.676;8.606;2022-11-30T14:46:29;9.8;99.9
43414;DHT22;29013;49.676;8.606;2022-11-30T14:51:57;9.5;99.9
43414;DHT22;29013;49.676;8.606;2022-11-30T14:57:23;9.5;99.9
43414;DHT22;29013;49.676;8.606;2022-11-30T15:02:47;9.5;99.9
43414;DHT22;29013;49.676;8.606;2022-11-30T15:08:11;9.4;99.9
43414;DHT22;29013;49.676;8.606;2022-11-30T15:13:34;9.4;99.9
43414;DHT22;29013;49.676;8.606;2022-11-30T15:19:15;9.5;99.9
43414;DHT22;29013;49.676;8.606;2022-11-30T15:24:26;9.4;99.9
43414;DHT22;29013;49.676;8.606;2022-11-30T15:29:55;9.3;99.9
43414;DHT22;29013;49.676;8.606;2022-11-30T15:35:22;9.3;99.9
43414;DHT22;29013;49.676;8.606;2022-11-30T15:40:45;9.3;99.9
43414;DHT22;29013;49.676;8.606;2022-11-30T15:46:33;9.3;99.9
43414;DHT22;29013;49.676;8.606;2022-11-30T15:52:03;9.5;99.9
43414;DHT22;29013;49.676;8.606;2022-11-30T15:57:24;9.5;99.9
43414;DHT22;29013;49.676;8.606;2022-11-30T16:02:47;9.4;99.9
43414;DHT22;29013;49.676;8.606;2022-11-30T16:08:16;9.3;99.9
43414;DHT22;29013;49.676;8.606;2022-11-30T16:13:41;9.3;99.9
43414;DHT22;29013;49.676;8.606;2022-11-30T16:19:06;9.3;99.9
43414;DHT22;29013;49.676;8.606;2022-11-30T16:24:31;9.3;99.9
43414;DHT22;29013;49.676;8.606;2022-11-30T16:29:55;9.2;99.9
43414;DHT22;29013;49.676;8.606;2022-11-30T16:35:24;9.2;99.9
43414;DHT22;29013;49.676;8.606;2022-11-30T16:40:49;9.1;99.9
43414;DHT22;29013;49.676;8.606;2022-11-30T16:46:14;9.1;99.9
43414;DHT22;29013;49.676;8.606;2022-11-30T16:51:37;9.0;99.9
43414;DHT22;29013;49.676;8.606;2022-11-30T16:57:00;9.0;99.9
43414;DHT22;29013;49.676;8.606;2022-11-30T17:02:24;9.0;99.9
43414;DHT22;29013;49.676;8.606;2022-11-30T17:07:50;9.0;99.9
43414;DHT22;29013;49.676;8.606;2022-11-30T17:13:15;9.0;99.9
43414;DHT22;29013;49.676;8.606;2022-11-30T17:18:36;8.9;99.9
43414;DHT22;29013;49.676;8.606;2022-11-30T17:23:59;8.8;99.9
43414;DHT22;29013;49.676;8.606;2022-11-30T17:29:23;8.7;99.9
43414;DHT22;29013;49.676;8.606;2022-11-30T17:34:50;8.7;99.9
43414;DHT22;29013;49.676;8.606;2022-11-30T17:40:15;8.7;99.9
43414;DHT22;29013;49.676;8.606;2022-11-30T17:45:43;8.8;99.9
43414;DHT22;29013;49.676;8.606;2022-11-30T17:51:10;8.7;99.9
43414;DHT22;29013;49.676;8.606;2022-11-30T17:56:36;8.7;99.9
43414;DHT22;29013;49.676;8.606;2022-11-30T18:02:01;8.6;99.9
43414;DHT22;29013;49.676;8.606;2022-11-30T18:07:23;8.6;99.9
43414;DHT22;29013;49.676;8.606;2022-11-30T18:12:47;8.5;99.9
43414;DHT22;29013;49.676;8.606;2022-11-30T18:18:11;8.5;99.9
43414;DHT22;29013;49.676;8.606;2022-11-30T18:23:36;8.4;99.9
43414;DHT22;29013;49.676;8.606;2022-11-30T18:29:02;8.3;99.9
43414;DHT22;29013;49.676;8.606;2022-11-30T18:34:29;8.2;99.9
43414;DHT22;29013;49.676;8.606;2022-11-30T18:39:55;8.1;99.9
43414;DHT22;29013;49.676;8.606;2022-11-30T18:45:19;8.1;99.9
43414;DHT22;29013;49.676;8.606;2022-11-30T18:50:40;8.1;99.9
43414;DHT22;29013;49.676;8.606;2022-11-30T18:56:11;8.1;99.9
43414;DHT22;29013;49.676;8.606;2022-11-30T19:01:31;8.1;99.9
43414;DHT22;29013;49.676;8.606;2022-11-30T19:06:52;8.1;99.9
43414;DHT22;29013;49.676;8.606;2022-11-30T19:12:13;8.2;99.9
43414;DHT22;29013;49.676;8.606;2022-11-30T19:17:34;8.1;99.9
43414;DHT22;29013;49.676;8.606;2022-11-30T19:22:55;8.1;99.9
43414;DHT22;29013;49.676;8.606;2022-11-30T19:28:18;8.1;99.9
43414;DHT22;29013;49.676;8.606;2022-11-30T19:33:42;8.2;99.9
43414;DHT22;29013;49.676;8.606;2022-11-30T19:39:04;8.2;99.9
43414;DHT22;29013;49.676;8.606;2022-11-30T19:44:27;8.2;99.9
43414;DHT22;29013;49.676;8.606;2022-11-30T19:49:49;8.0;99.9
43414;DHT22;29013;49.676;8.606;2022-11-30T19:55:16;8.1;99.9
43414;DHT22;29013;49.676;8.606;2022-11-30T20:00:45;8.1;99.9
43414;DHT22;29013;49.676;8.606;2022-11-30T20:06:08;8.2;99.9
43414;DHT22;29013;49.676;8.606;2022-11-30T20:11:34;8.2;99.9
43414;DHT22;29013;49.676;8.606;2022-11-30T20:16:59;8.1;99.9
43414;DHT22;29013;49.676;8.606;2022-11-30T20:22:26;8.2;99.9
43414;DHT22;29013;49.676;8.606;2022-11-30T20:27:51;8.2;99.9
43414;DHT22;29013;49.676;8.606;2022-11-30T20:33:15;8.2;99.9
43414;DHT22;29013;49.676;8.606;2022-11-30T20:38:41;8.2;99.9
43414;DHT22;29013;49.676;8.606;2022-11-30T20:44:03;8.2;99.9
43414;DHT22;29013;49.676;8.606;2022-11-30T20:49:28;8.2;99.9
43414;DHT22;29013;49.676;8.606;2022-11-30T20:54:53;8.2;99.9
43414;DHT22;29013;49.676;8.606;2022-11-30T21:00:19;8.2;99.9
43414;DHT22;29013;49.676;8.606;2022-11-30T21:05:44;8.2;99.9
43414;DHT22;29013;49.676;8.606;2022-11-30T21:11:11;8.2;99.9
43414;DHT22;29013;49.676;8.606;2022-11-30T21:16:34;8.2;99.9
43414;DHT22;29013;49.676;8.606;2022-11-30T21:22:00;8.1;99.9
43414;DHT22;29013;49.676;8.606;2022-11-30T21:27:27;8.1;99.9
43414;DHT22;29013;49.676;8.606;2022-11-30T21:32:51;8.1;99.9
43414;DHT22;29013;49.676;8.606;2022-11-30T21:38:13;8.0;99.9
43414;DHT22;29013;49.676;8.606;2022-11-30T21:43:39;8.0;99.9
43414;DHT22;29013;49.676;8.606;2022-11-30T21:49:02;8.0;99.9
43414;DHT22;29013;49.676;8.606;2022-11-30T21:54:28;8.1;99.9
43414;DHT22;29013;49.676;8.606;2022-11-30T21:59:52;8.0;99.9
43414;DHT22;29013;49.676;8.606;2022-11-30T22:05:19;8.1;99.9
43414;DHT22;29013;49.676;8.606;2022-11-30T22:10:43;8.1;99.9
43414;DHT22;29013;49.676;8.606;2022-11-30T22:16:08;8.0;99.9
43414;DHT22;29013;49.676;8.606;2022-11-30T22:21:30;8.1;99.9
43414;DHT22;29013;49.676;8.606;2022-11-30T22:26:50;8.1;99.9
43414;DHT22;29013;49.676;8.606;2022-11-30T22:32:16;8.0;99.9
43414;DHT22;29013;49.676;8.606;2022-11-30T22:37:40;8.0;99.9
43414;DHT22;29013;49.676;8.606;2022-11-30T22:43:07;8.0;99.9
43414;DHT22;29013;49.676;8.606;2022-11-30T22:48:34;8.0;99.9
43414;DHT22;29013;49.676;8.606;2022-11-30T22:54:03;8.0;99.9
43414;DHT22;29013;49.676;8.606;2022-11-30T22:59:27;7.9;99.9
43414;DHT22;29013;49.676;8.606;2022-11-30T23:04:55;7.7;99.9
43414;DHT22;29013;49.676;8.606;2022-11-30T23:10:17;7.7;99.9
43414;DHT22;29013;49.676;8.606;2022-11-30T23:15:41;7.6;99.9
43414;DHT22;29013;49.676;8.606;2022-11-30T23:21:10;7.5;99.9
43414;DHT22;29013;49.676;8.606;2022-11-30T23:26:36;7.6;99.9
43414;DHT22;29013;49.676;8.606;2022-11-30T23:32:01;7.6;99.9
43414;DHT22;29013;49.676;8.606;2022-11-30T23:37:25;7.6;99.9
43414;DHT22;29013;49.676;8.606;2022-11-30T23:42:48;7.5;99.9
43414;DHT22;29013;49.676;8.606;2022-11-30T23:48:11;7.5;99.9
43414;DHT22;29013;49.676;8.606;2022-11-30T23:53:35;7.5;99.9
43414;DHT22;29013;49.676;8.606;2022-11-30T23:59:02;7.5;99.9
